Time;durP1;ratioP1;P1;durP2;ratioP2;P2;SDS_P1;SDS_P2;PMS_P1;PMS_P2;Temp;Humidity;BMP_temperature;BMP_pressure;BME280_temperature;BME280_humidity;BME280_pressure;Samples;Min_cycle;Max_cycle;Signal;HPM_P1;HPM_P2
2021/11/28 00:02:22;;;;;;;25.37;20.32;;;;;;;4.85;81.21;99085.97;1722227;81;22242;-72
2021/11/28 00:04:49;;;;;;;24.55;18.73;;;;;;;4.83;81.17;99086.57;1732967;82;21337;-72
2021/11/28 00:15:03;;;;;;;19.87;17.00;;;;;;;4.77;81.23;99111.88;1739691;82;21853;-72
2021/11/28 00:17:29;;;;;;;20.30;17.27;;;;;;;4.75;81.25;99105.94;1711701;82;20973;-71
2021/11/28 00:19:56;;;;;;;22.42;16.97;;;;;;;4.74;81.28;99101.17;1679102;85;21105;-72
2021/11/28 00:22:23;;;;;;;20.30;17.12;;;;;;;4.75;81.32;99098.91;1684858;84;21194;-72
2021/11/28 00:24:50;;;;;;;21.20;16.60;;;;;;;4.76;81.36;99095.34;1684253;84;21032;-72
2021/11/28 00:27:17;;;;;;;19.48;17.15;;;;;;;4.76;81.38;99094.05;1677140;84;22325;-72
2021/11/28 00:29:44;;;;;;;19.55;16.35;;;;;;;4.76;81.43;99093.21;1704020;84;21412;-72
2021/11/28 00:32:12;;;;;;;19.98;16.15;;;;;;;4.76;81.44;99104.50;1689350;84;20981;-72
2021/11/28 00:34:39;;;;;;;21.07;16.45;;;;;;;4.75;81.46;99105.45;1683285;84;21047;-71
2021/11/28 00:37:05;;;;;;;28.77;15.70;;;;;;;4.75;81.46;99104.63;1701394;84;21169;-72
2021/11/28 00:39:33;;;;;;;35.65;15.28;;;;;;;4.76;81.44;99108.91;1680569;84;21716;-72
2021/11/28 00:42:00;;;;;;;27.93;16.93;;;;;;;4.75;81.44;99104.63;1688902;84;21126;-72
2021/11/28 00:44:28;;;;;;;29.80;15.30;;;;;;;4.72;81.45;99106.98;1700881;84;21122;-72
2021/11/28 00:46:55;;;;;;;46.37;15.30;;;;;;;4.72;81.45;99106.14;1702883;84;20992;-71
2021/11/28 00:49:23;;;;;;;70.05;15.50;;;;;;;4.71;81.43;99107.09;1704908;84;21012;-71
2021/11/28 00:51:56;;;;;;;68.35;14.50;;;;;;;4.69;81.36;99098.53;1696490;84;22227;-72
2021/11/28 00:54:21;;;;;;;31.68;14.33;;;;;;;4.67;81.38;99099.13;1691351;84;21028;-72
2021/11/28 00:56:47;;;;;;;32.05;14.50;;;;;;;4.65;81.36;99097.11;1702439;84;21506;-72
2021/11/28 00:59:16;;;;;;;28.67;14.15;;;;;;;4.66;81.36;99093.55;1676596;84;21071;-71
2021/11/28 01:01:43;;;;;;;18.75;14.03;;;;;;;4.64;81.31;99091.53;1692025;84;21454;-72
2021/11/28 01:04:10;;;;;;;26.93;14.05;;;;;;;4.64;81.31;99087.61;1712111;83;22249;-72
2021/11/28 01:06:38;;;;;;;41.23;14.75;;;;;;;4.62;81.27;99081.16;1714100;82;20985;-71
2021/11/28 01:09:07;;;;;;;29.77;13.88;;;;;;;4.62;81.23;99089.00;1726663;82;20945;-72
2021/11/28 01:11:37;;;;;;;28.45;13.48;;;;;;;4.59;81.17;99080.09;1718535;83;21088;-73
2021/11/28 01:14:04;;;;;;;21.33;14.43;;;;;;;4.58;81.18;99081.05;1721673;83;20973;-71
2021/11/28 01:16:33;;;;;;;131.85;15.32;;;;;;;4.56;81.12;99082.47;1737906;82;22178;-74
2021/11/28 01:18:59;;;;;;;132.27;14.25;;;;;;;4.56;81.10;99085.56;1737323;82;20958;-71
2021/11/28 01:21:28;;;;;;;90.50;13.50;;;;;;;4.53;81.03;99081.38;1715116;82;21041;-74
2021/11/28 01:23:55;;;;;;;166.68;13.30;;;;;;;4.51;81.00;99084.58;1724749;82;21013;-72
2021/11/28 01:26:21;;;;;;;202.20;14.15;;;;;;;4.48;80.99;99084.82;1742397;82;21080;-72
2021/11/28 01:28:51;;;;;;;201.22;13.00;;;;;;;4.46;80.96;99085.42;1745112;82;21020;-71
2021/11/28 01:31:18;;;;;;;161.77;13.38;;;;;;;4.42;80.88;99085.75;1742958;82;20993;-71
2021/11/28 01:33:44;;;;;;;140.73;13.78;;;;;;;4.39;80.84;99086.81;1742175;82;20988;-71
2021/11/28 01:36:11;;;;;;;157.43;12.53;;;;;;;4.37;80.84;99093.11;1722907;82;21440;-72
2021/11/28 01:38:38;;;;;;;129.85;12.37;;;;;;;4.35;80.83;99098.46;1742359;82;21091;-72
2021/11/28 01:41:05;;;;;;;188.70;13.68;;;;;;;4.33;80.80;99099.50;1726666;82;22283;-72
2021/11/28 01:43:32;;;;;;;143.05;12.98;;;;;;;4.29;80.78;99098.90;1725896;82;20997;-72
2021/11/28 01:45:59;;;;;;;118.15;12.73;;;;;;;4.24;80.81;99098.39;1704868;83;21009;-72
2021/11/28 01:48:26;;;;;;;123.02;11.90;;;;;;;4.21;80.81;99096.02;1726461;82;21033;-72
2021/11/28 01:50:53;;;;;;;70.67;11.80;;;;;;;4.19;80.76;99103.97;1733328;82;20961;-72
2021/11/28 01:53:24;;;;;;;105.70;12.25;;;;;;;4.17;80.71;99112.88;1737793;82;22285;-72
2021/11/28 01:55:51;;;;;;;190.00;14.33;;;;;;;4.14;80.59;99108.69;1757049;80;20974;-71
2021/11/28 01:58:26;;;;;;;170.25;13.93;;;;;;;4.11;80.58;99114.15;1739461;81;20969;-71
2021/11/28 02:00:57;;;;;;;97.37;12.13;;;;;;;4.08;80.53;99113.55;1745607;81;20986;-70
2021/11/28 02:03:23;;;;;;;76.55;11.70;;;;;;;4.05;80.50;99113.27;1745640;81;21433;-71
2021/11/28 02:05:54;;;;;;;103.47;12.63;;;;;;;4.02;80.49;99113.51;1722972;81;21823;-70
2021/11/28 02:08:21;;;;;;;101.80;11.35;;;;;;;3.99;80.56;99120.27;1716191;82;20939;-71
2021/11/28 02:10:49;;;;;;;89.83;11.88;;;;;;;3.95;80.62;99118.80;1713449;82;21430;-71
2021/11/28 02:13:18;;;;;;;84.10;11.53;;;;;;;3.91;80.55;99116.89;1733621;81;20974;-71
2021/11/28 02:15:44;;;;;;;90.05;11.65;;;;;;;3.88;80.54;99113.69;1721893;82;21030;-71
2021/11/28 02:18:12;;;;;;;103.85;11.10;;;;;;;3.85;80.54;99118.63;1737266;82;21911;-71
2021/11/28 02:20:50;;;;;;;194.97;12.03;;;;;;;3.83;80.54;99112.69;1740060;82;21008;-71
2021/11/28 02:23:17;;;;;;;158.47;12.50;;;;;;;3.79;80.59;99103.89;1723275;82;21011;-71
2021/11/28 02:25:45;;;;;;;126.55;11.78;;;;;;;3.75;80.68;99105.88;1738921;82;20952;-72
2021/11/28 02:28:13;;;;;;;118.20;12.10;;;;;;;3.78;80.71;99104.84;1721696;82;21450;-72
2021/11/28 02:30:40;;;;;;;80.85;11.18;;;;;;;3.77;80.72;99110.54;1717193;83;22741;-71
2021/11/28 02:33:07;;;;;;;124.65;11.78;;;;;;;3.75;80.69;99111.09;1721295;83;21011;-71
2021/11/28 02:35:34;;;;;;;117.45;11.68;;;;;;;3.75;80.69;99112.41;1720929;83;20968;-72
2021/11/28 02:38:04;;;;;;;151.18;11.70;;;;;;;3.74;80.70;99118.57;1719016;83;21023;-71
2021/11/28 02:40:31;;;;;;;120.85;10.98;;;;;;;3.74;80.69;99122.48;1706484;82;21078;-71
2021/11/28 02:42:58;;;;;;;109.30;10.35;;;;;;;3.62;80.82;99132.03;1720587;81;21859;-72
2021/11/28 02:45:26;;;;;;;70.10;9.43;;;;;;;3.51;81.05;99136.34;1723000;83;20979;-71
2021/11/28 02:47:54;;;;;;;86.45;10.45;;;;;;;3.42;81.02;99148.26;1719716;82;20938;-71
2021/11/28 02:50:21;;;;;;;80.57;10.23;;;;;;;3.32;80.91;99162.42;1750420;81;21017;-73
2021/11/28 02:52:55;;;;;;;62.00;8.85;;;;;;;3.24;80.93;99153.44;1748778;81;21048;-72
2021/11/28 02:55:26;;;;;;;68.67;10.40;;;;;;;3.32;80.76;99143.31;1722943;83;21499;-72
2021/11/28 02:57:55;;;;;;;67.95;10.90;;;;;;;3.35;80.60;99137.88;1724113;82;20980;-72
2021/11/28 03:00:22;;;;;;;78.42;11.10;;;;;;;3.35;80.65;99129.57;1717802;82;21130;-72
2021/11/28 03:02:49;;;;;;;65.42;10.25;;;;;;;3.34;80.65;99131.82;1722632;81;20992;-72
2021/11/28 03:05:19;;;;;;;57.10;10.13;;;;;;;3.33;80.59;99133.23;1722008;82;20987;-70
2021/11/28 03:07:47;;;;;;;56.02;9.35;;;;;;;3.32;80.53;99144.14;1713136;82;22232;-72
2021/11/28 03:10:39;;;;;;;31.82;9.90;;;;;;;3.31;80.45;99146.39;1716187;82;21083;-70
2021/11/28 03:13:12;;;;;;;58.28;9.60;;;;;;;3.28;80.42;99141.40;1720045;82;20987;-71
2021/11/28 03:15:39;;;;;;;68.95;10.68;;;;;;;3.27;80.47;99149.30;1701386;83;21058;-71
2021/11/28 03:18:14;;;;;;;112.83;10.72;;;;;;;3.27;80.52;99148.84;1719594;82;21474;-72
2021/11/28 03:20:42;;;;;;;83.72;11.05;;;;;;;3.29;80.55;99146.98;1733048;82;22767;-72
2021/11/28 03:23:10;;;;;;;70.65;10.78;;;;;;;3.29;80.56;99144.37;1732150;82;21024;-72
2021/11/28 03:25:38;;;;;;;77.05;10.10;;;;;;;3.30;80.55;99151.73;1733945;82;21063;-72
2021/11/28 03:28:05;;;;;;;63.25;8.88;;;;;;;3.29;80.49;99144.84;1744374;82;21107;-72
2021/11/28 03:30:32;;;;;;;86.20;9.10;;;;;;;3.27;80.46;99141.00;1735859;82;20993;-73
2021/11/28 03:33:06;;;;;;;96.25;10.08;;;;;;;3.24;80.43;99145.61;1741681;82;22198;-72
2021/11/28 03:35:35;;;;;;;85.12;9.90;;;;;;;3.20;80.39;99142.86;1726940;82;21001;-72
2021/11/28 03:38:04;;;;;;;78.28;9.65;;;;;;;3.16;80.35;99137.00;1717678;82;20972;-72
2021/11/28 03:40:36;;;;;;;60.52;9.15;;;;;;;3.09;80.31;99136.61;1722612;82;20999;-74
2021/11/28 03:43:04;;;;;;;71.70;9.53;;;;;;;3.05;80.33;99135.60;1708955;82;20945;-72
2021/11/28 03:45:31;;;;;;;22.30;6.83;;;;;;;3.00;80.28;99130.71;1724600;82;22234;-72
2021/11/28 03:48:00;;;;;;;49.75;8.20;;;;;;;2.96;80.19;99129.23;1730701;82;20941;-72
2021/11/28 03:50:27;;;;;;;34.18;8.58;;;;;;;2.86;80.12;99138.15;1744056;82;21086;-72
2021/11/28 03:52:55;;;;;;;22.93;6.97;;;;;;;2.80;80.12;99141.19;1722445;82;20984;-73
2021/11/28 03:55:24;;;;;;;41.83;8.58;;;;;;;2.73;80.12;99143.83;1737588;82;21443;-72
2021/11/28 03:57:50;;;;;;;37.35;7.28;;;;;;;2.65;80.12;99145.28;1741039;82;22520;-72
2021/11/28 04:00:19;;;;;;;38.58;7.35;;;;;;;2.58;80.13;99136.55;1743303;82;21032;-72
2021/11/28 04:02:48;;;;;;;43.13;7.22;;;;;;;2.55;80.12;99138.06;1740720;82;21016;-71
2021/11/28 04:05:18;;;;;;;58.42;7.45;;;;;;;2.50;80.12;99135.38;1748236;81;21031;-71
2021/11/28 04:07:47;;;;;;;18.82;5.72;;;;;;;2.45;80.12;99134.87;1720195;82;21040;-72
2021/11/28 04:10:15;;;;;;;52.85;7.67;;;;;;;2.40;80.08;99139.53;1725764;81;22149;-72
2021/11/28 04:12:43;;;;;;;44.27;6.87;;;;;;;2.32;80.06;99147.87;1736524;81;21019;-72
2021/11/28 04:15:10;;;;;;;59.05;6.83;;;;;;;2.22;80.04;99154.15;1747463;82;21027;-72
2021/11/28 04:17:38;;;;;;;69.40;8.13;;;;;;;2.14;80.11;99148.59;1709466;82;21479;-72
2021/11/28 04:20:07;;;;;;;46.63;7.58;;;;;;;2.13;80.19;99148.23;1724530;81;20964;-72
2021/11/28 04:22:35;;;;;;;61.53;7.58;;;;;;;2.12;80.21;99149.60;1730625;82;21857;-72
2021/11/28 04:25:04;;;;;;;36.90;7.62;;;;;;;2.10;80.22;99154.91;1744818;82;21541;-73
2021/11/28 04:27:31;;;;;;;66.42;7.65;;;;;;;2.06;80.23;99152.62;1715190;83;20975;-72
2021/11/28 04:30:00;;;;;;;27.32;6.90;;;;;;;2.02;80.34;99151.95;1715828;82;21047;-72
2021/11/28 04:32:27;;;;;;;68.35;6.58;;;;;;;2.00;80.33;99162.95;1721937;82;21034;-73
2021/11/28 04:34:56;;;;;;;35.25;6.30;;;;;;;1.98;80.33;99157.00;1701931;83;21850;-72
2021/11/28 04:37:22;;;;;;;66.65;6.45;;;;;;;1.94;80.33;99156.38;1716095;83;20948;-73
2021/11/28 04:39:49;;;;;;;24.87;5.58;;;;;;;1.91;80.37;99155.25;1703836;83;21566;-71
2021/11/28 04:42:16;;;;;;;59.90;6.28;;;;;;;1.88;80.44;99155.92;1726848;82;20962;-74
2021/11/28 04:44:45;;;;;;;96.32;7.37;;;;;;;1.83;80.51;99163.17;1729075;82;21004;-72
2021/11/28 04:47:15;;;;;;;87.60;7.87;;;;;;;1.81;80.57;99168.95;1725168;82;22827;-72
2021/11/28 04:49:42;;;;;;;108.20;7.62;;;;;;;1.79;80.68;99159.09;1739644;82;21000;-72
2021/11/28 04:52:08;;;;;;;40.85;5.72;;;;;;;1.79;80.72;99151.29;1735847;82;21477;-72
2021/11/28 04:54:35;;;;;;;105.03;7.60;;;;;;;1.81;80.80;99149.42;1727176;82;21015;-74
2021/11/28 04:57:03;;;;;;;50.23;5.55;;;;;;;1.81;80.82;99153.32;1720267;82;21063;-72
2021/11/28 04:59:30;;;;;;;50.78;5.62;;;;;;;1.80;80.80;99157.70;1726420;82;21906;-73
2021/11/28 05:01:57;;;;;;;89.03;6.70;;;;;;;1.76;80.78;99158.00;1718812;82;21038;-72
2021/11/28 05:04:26;;;;;;;32.23;5.20;;;;;;;1.71;80.78;99165.61;1738971;82;21459;-72
2021/11/28 05:07:11;;;;;;;104.80;6.05;;;;;;;1.66;80.81;99165.08;1731851;82;20955;-73
2021/11/28 05:09:43;;;;;;;54.13;5.72;;;;;;;1.61;80.91;99166.28;1717034;82;21373;-72
2021/11/28 05:12:10;;;;;;;91.80;6.22;;;;;;;1.57;81.00;99165.64;1723579;82;21805;-72
2021/11/28 05:14:39;;;;;;;64.95;5.72;;;;;;;1.55;81.06;99162.31;1723345;82;21041;-72
2021/11/28 05:17:08;;;;;;;26.77;5.05;;;;;;;1.53;81.19;99156.34;1729425;82;21019;-72
2021/11/28 05:19:36;;;;;;;84.37;5.85;;;;;;;1.54;81.25;99159.77;1722647;82;20994;-72
2021/11/28 05:22:03;;;;;;;92.97;5.75;;;;;;;1.54;81.37;99161.08;1727636;82;21090;-73
2021/11/28 05:24:44;;;;;;;104.63;6.20;;;;;;;1.55;81.48;99166.21;1710991;82;21480;-71
2021/11/28 05:27:10;;;;;;;93.80;6.10;;;;;;;1.57;81.56;99160.44;1728963;82;21051;-72
2021/11/28 05:29:38;;;;;;;156.25;7.05;;;;;;;1.60;81.66;99159.41;1723128;83;20998;-72
2021/11/28 05:32:05;;;;;;;178.57;7.08;;;;;;;1.62;81.75;99162.28;1723210;82;21379;-74
2021/11/28 05:34:35;;;;;;;56.33;5.17;;;;;;;1.66;81.86;99170.28;1699487;83;20990;-72
2021/11/28 05:37:20;;;;;;;187.37;8.03;;;;;;;1.71;81.96;99181.70;1729155;82;21870;-72
2021/11/28 05:39:49;;;;;;;247.30;7.72;;;;;;;1.74;82.06;99185.44;1741644;81;21480;-74
2021/11/28 05:42:16;;;;;;;301.70;9.38;;;;;;;1.77;82.13;99187.00;1731986;82;21027;-72
2021/11/28 05:44:43;;;;;;;182.20;7.03;;;;;;;1.80;82.20;99192.00;1706010;83;21015;-72
2021/11/28 05:47:29;;;;;;;158.25;6.62;;;;;;;1.85;82.26;99188.67;1722975;83;21417;-72
2021/11/28 05:50:08;;;;;;;107.78;5.50;;;;;;;1.90;82.36;99181.39;1734003;82;21834;-74
2021/11/28 05:52:37;;;;;;;132.55;6.50;;;;;;;1.94;82.42;99186.32;1726589;82;21729;-72
2021/11/28 05:55:05;;;;;;;99.03;6.17;;;;;;;1.97;82.50;99179.61;1698895;83;21439;-72
2021/11/28 05:57:34;;;;;;;213.55;8.40;;;;;;;2.00;82.59;99181.17;1735883;82;20967;-72
2021/11/28 06:00:04;;;;;;;95.40;6.00;;;;;;;2.03;82.67;99194.46;1738331;82;21035;-73
2021/11/28 06:02:32;;;;;;;169.15;7.47;;;;;;;2.06;82.78;99204.23;1712595;82;21852;-72
2021/11/28 06:05:00;;;;;;;154.00;6.95;;;;;;;2.10;82.86;99197.89;1730885;81;20992;-73
2021/11/28 06:07:46;;;;;;;220.37;8.78;;;;;;;2.14;82.95;99211.58;1725532;82;21000;-72
2021/11/28 06:10:13;;;;;;;249.00;9.45;;;;;;;2.17;83.06;99207.00;1723514;82;21458;-73
2021/11/28 06:12:39;;;;;;;22.22;5.12;;;;;;;2.22;83.17;99190.62;1720798;82;21004;-72
2021/11/28 06:15:07;;;;;;;252.30;9.38;;;;;;;2.30;83.25;99187.03;1716008;82;21725;-73
2021/11/28 06:17:45;;;;;;;68.37;6.25;;;;;;;2.34;83.29;99185.08;1752244;81;21016;-73
2021/11/28 06:20:14;;;;;;;113.95;6.90;;;;;;;2.39;83.39;99196.49;1686186;82;20988;-73
2021/11/28 06:22:43;;;;;;;244.13;10.00;;;;;;;2.42;83.46;99196.32;1729382;82;20992;-73
2021/11/28 06:25:10;;;;;;;78.52;6.33;;;;;;;2.43;83.50;99195.38;1732140;82;21512;-72
2021/11/28 06:27:38;;;;;;;70.00;6.12;;;;;;;2.48;83.57;99200.64;1716563;82;21490;-72
2021/11/28 06:30:07;;;;;;;109.42;6.83;;;;;;;2.51;83.61;99207.42;1722087;83;21442;-72
2021/11/28 06:32:52;;;;;;;140.75;7.53;;;;;;;2.51;83.64;99200.47;1722086;82;21378;-73
2021/11/28 06:35:37;;;;;;;121.22;6.97;;;;;;;2.52;83.68;99195.62;1745472;81;21479;-73
2021/11/28 06:38:06;;;;;;;49.35;5.87;;;;;;;2.53;83.73;99198.59;1744991;81;20989;-71
2021/11/28 06:40:51;;;;;;;119.10;7.00;;;;;;;2.53;83.73;99200.36;1729030;82;22200;-70
2021/11/28 06:43:19;;;;;;;118.75;6.70;;;;;;;2.53;83.79;99197.28;1714283;82;21059;-73
2021/11/28 06:45:46;;;;;;;154.95;7.62;;;;;;;2.54;83.81;99192.91;1731296;81;21014;-71
2021/11/28 06:48:13;;;;;;;249.35;8.90;;;;;;;2.53;83.84;99196.45;1713799;82;21012;-71
2021/11/28 06:50:42;;;;;;;258.00;8.70;;;;;;;2.55;83.90;99191.97;1750251;81;20938;-73
2021/11/28 06:53:17;;;;;;;43.55;5.75;;;;;;;2.59;83.99;99191.66;1745478;81;21865;-72
2021/11/28 06:56:04;;;;;;;135.15;6.87;;;;;;;2.65;84.02;99196.95;1744436;81;21552;-71
2021/11/28 06:58:46;;;;;;;148.22;8.10;;;;;;;2.65;84.01;99220.41;1748875;81;20962;-72
2021/11/28 07:01:13;;;;;;;112.90;7.65;;;;;;;2.66;84.06;99220.77;1739891;81;21011;-72
2021/11/28 07:03:39;;;;;;;146.50;8.68;;;;;;;2.72;84.18;99220.85;1753979;81;21602;-71
2021/11/28 07:06:14;;;;;;;164.88;9.53;;;;;;;2.75;84.21;99207.14;1736378;81;21839;-72
2021/11/28 07:08:43;;;;;;;155.95;8.58;;;;;;;2.79;84.24;99208.59;1735226;82;20978;-71
2021/11/28 07:11:09;;;;;;;58.40;5.92;;;;;;;2.81;84.25;99206.74;1721013;83;20998;-71
2021/11/28 07:13:36;;;;;;;246.65;9.25;;;;;;;2.84;84.24;99200.02;1711245;83;20976;-71
2021/11/28 07:16:04;;;;;;;141.92;7.90;;;;;;;2.85;84.28;99201.67;1717972;82;20979;-72
2021/11/28 07:18:39;;;;;;;162.43;8.40;;;;;;;2.88;84.29;99201.94;1726782;82;22343;-73
2021/11/28 07:21:05;;;;;;;211.03;8.68;;;;;;;2.91;84.32;99203.05;1731327;81;21506;-72
2021/11/28 07:23:32;;;;;;;145.97;7.95;;;;;;;2.96;84.36;99206.17;1688896;83;21032;-72
2021/11/28 07:26:00;;;;;;;144.32;8.08;;;;;;;2.98;84.36;99199.55;1732455;82;21002;-75
2021/11/28 07:28:29;;;;;;;121.42;8.23;;;;;;;3.02;84.37;99199.73;1722454;81;21056;-75
2021/11/28 07:30:57;;;;;;;202.97;10.32;;;;;;;3.05;84.38;99202.13;1729614;82;21849;-74
2021/11/28 07:33:31;;;;;;;173.32;9.68;;;;;;;3.07;84.41;99195.02;1724481;82;21430;-72
2021/11/28 07:36:16;;;;;;;198.57;11.57;;;;;;;3.13;84.49;99194.62;1725356;82;21434;-75
2021/11/28 07:38:45;;;;;;;195.47;14.47;;;;;;;3.20;84.54;99190.66;1737152;81;21447;-72
2021/11/28 07:41:13;;;;;;;114.62;17.37;;;;;;;3.26;84.56;99204.58;1740639;82;21043;-73
2021/11/28 07:43:48;;;;;;;145.35;20.08;;;;;;;3.31;84.59;99209.50;1717191;82;22737;-74
2021/11/28 07:46:33;;;;;;;208.35;40.45;;;;;;;3.37;84.61;99207.76;1726714;82;21392;-73
2021/11/28 07:49:01;;;;;;;246.45;67.62;;;;;;;3.43;84.66;99202.13;1737440;82;21007;-74
2021/11/28 07:51:28;;;;;;;200.57;66.35;;;;;;;3.47;84.61;99198.83;1722181;82;21036;-71
2021/11/28 07:53:56;;;;;;;189.43;61.70;;;;;;;3.47;84.53;99205.35;1721414;82;20968;-72
2021/11/28 07:56:24;;;;;;;212.85;64.62;;;;;;;3.45;84.46;99210.21;1706677;84;21921;-72
2021/11/28 07:59:09;;;;;;;137.88;64.55;;;;;;;3.42;84.40;99211.73;1729834;82;21015;-74
2021/11/28 08:01:38;;;;;;;293.37;75.55;;;;;;;3.42;84.40;99210.91;1730714;82;21007;-75
2021/11/28 08:04:23;;;;;;;227.57;64.00;;;;;;;3.40;84.34;99211.02;1720163;82;21509;-74
2021/11/28 08:07:08;;;;;;;295.75;62.98;;;;;;;3.39;84.35;99208.05;1717942;82;21011;-73
2021/11/28 08:09:54;;;;;;;291.77;63.42;;;;;;;3.40;84.39;99211.02;1715385;82;21019;-78
2021/11/28 08:12:21;;;;;;;304.87;47.10;;;;;;;3.43;84.44;99213.41;1715931;82;21023;-72
2021/11/28 08:14:48;;;;;;;178.23;31.97;;;;;;;3.48;84.45;99210.97;1719177;82;21118;-74
2021/11/28 08:17:15;;;;;;;240.45;30.02;;;;;;;3.48;84.41;99207.89;1720008;82;21019;-76
2021/11/28 08:19:42;;;;;;;179.70;22.65;;;;;;;3.47;84.32;99202.74;1729286;82;21067;-70
2021/11/28 08:22:09;;;;;;;222.37;19.45;;;;;;;3.50;84.37;99196.86;1732429;82;22681;-73
2021/11/28 08:24:36;;;;;;;141.25;17.02;;;;;;;3.52;84.40;99194.97;1727318;81;21027;-75
2021/11/28 08:27:04;;;;;;;121.50;16.77;;;;;;;3.55;84.41;99206.50;1731389;82;21039;-72
2021/11/28 08:29:31;;;;;;;151.65;17.55;;;;;;;3.57;84.41;99202.03;1717314;82;21490;-73
2021/11/28 08:32:00;;;;;;;134.65;17.40;;;;;;;3.62;84.49;99194.70;1738899;82;21004;-71
2021/11/28 08:34:38;;;;;;;113.80;18.98;;;;;;;3.65;84.47;99196.25;1672804;84;21075;-72
2021/11/28 08:37:10;;;;;;;117.35;23.65;;;;;;;3.68;84.48;99205.20;1722066;81;21055;-71
2021/11/28 08:39:37;;;;;;;123.25;39.60;;;;;;;3.71;84.53;99207.11;1733168;82;21050;-71
2021/11/28 08:42:07;;;;;;;144.77;38.08;;;;;;;3.77;84.64;99213.70;1723378;82;21031;-73
2021/11/28 08:44:35;;;;;;;105.55;31.70;;;;;;;3.80;84.57;99217.39;1730454;82;21534;-71
2021/11/28 08:47:02;;;;;;;63.98;23.75;;;;;;;3.81;84.57;99217.75;1733212;82;21837;-70
2021/11/28 08:49:31;;;;;;;119.75;31.02;;;;;;;3.82;84.56;99211.58;1716674;81;21306;-73
2021/11/28 08:51:57;;;;;;;63.80;23.47;;;;;;;3.80;84.46;99208.72;1719379;82;21042;-75
2021/11/28 08:54:25;;;;;;;92.20;21.55;;;;;;;3.78;84.44;99197.08;1733810;82;21086;-72
2021/11/28 08:56:51;;;;;;;61.77;17.87;;;;;;;3.78;84.46;99206.22;1729349;82;21027;-73
2021/11/28 08:59:20;;;;;;;74.05;17.90;;;;;;;3.83;84.56;99209.33;1728981;81;22655;-73
2021/11/28 09:01:47;;;;;;;90.22;17.48;;;;;;;3.86;84.55;99206.52;1734889;82;20954;-73
2021/11/28 09:04:15;;;;;;;84.03;17.73;;;;;;;3.87;84.56;99201.66;1732816;81;21063;-73
2021/11/28 09:06:42;;;;;;;86.45;21.82;;;;;;;3.92;84.64;99200.02;1724802;82;21028;-75
2021/11/28 09:09:09;;;;;;;108.47;18.95;;;;;;;3.99;84.74;99194.73;1718705;82;21034;-76
2021/11/28 09:11:36;;;;;;;95.15;18.42;;;;;;;4.08;84.85;99198.47;1707603;82;22677;-74
2021/11/28 09:14:04;;;;;;;111.45;17.62;;;;;;;4.16;84.87;99189.61;1713690;82;21043;-75
2021/11/28 09:16:31;;;;;;;102.87;17.30;;;;;;;4.23;84.90;99188.20;1711109;82;21038;-73
2021/11/28 09:19:04;;;;;;;96.32;18.35;;;;;;;4.29;84.90;99187.77;1726294;82;21441;-73
2021/11/28 09:21:27;;;;;;;77.75;18.05;;;;;;;4.34;84.91;99181.72;1721620;82;21038;-74
2021/11/28 09:26:42;;;;;;;91.00;20.68;;;;;;;4.46;84.98;99178.23;1729809;82;21037;-74
2021/11/28 09:29:08;;;;;;;107.70;18.80;;;;;;;4.55;85.08;99179.34;1714509;82;21125;-73
2021/11/28 09:31:35;;;;;;;116.00;20.95;;;;;;;4.59;85.06;99171.62;1739080;82;21059;-73
2021/11/28 09:34:02;;;;;;;84.60;21.85;;;;;;;4.64;85.10;99177.83;1740203;82;21096;-74
2021/11/28 09:36:32;;;;;;;86.55;21.02;;;;;;;4.69;85.15;99180.45;1737610;82;22553;-71
2021/11/28 09:39:00;;;;;;;94.15;20.05;;;;;;;4.74;85.17;99190.11;1737886;82;20970;-76
2021/11/28 09:41:34;;;;;;;104.45;26.20;;;;;;;4.77;85.20;99191.66;1739975;82;21019;-74
2021/11/28 09:44:06;;;;;;;104.47;29.15;;;;;;;4.82;85.27;99185.59;1734884;82;21511;-75
2021/11/28 09:46:33;;;;;;;92.42;25.20;;;;;;;4.89;85.31;99184.20;1713802;82;21050;-75
2021/11/28 09:49:05;;;;;;;83.75;25.40;;;;;;;4.95;85.35;99177.68;1716649;82;21794;-76
2021/11/28 09:51:34;;;;;;;73.67;24.43;;;;;;;4.98;85.36;99176.13;1710550;83;21044;-73
2021/11/28 09:54:03;;;;;;;107.95;29.10;;;;;;;5.06;85.47;99182.94;1720853;82;21016;-74
2021/11/28 09:56:37;;;;;;;118.40;30.37;;;;;;;5.11;85.48;99175.55;1735073;82;48789;-73
2021/11/28 09:59:05;;;;;;;76.77;28.25;;;;;;;5.16;85.53;99184.73;1726289;82;22265;-72
2021/11/28 10:01:33;;;;;;;110.55;31.45;;;;;;;5.23;85.57;99186.90;1728179;82;21865;-74
2021/11/28 10:04:00;;;;;;;101.50;34.33;;;;;;;5.27;85.58;99179.98;1725168;82;20995;-77
2021/11/28 10:06:29;;;;;;;91.22;31.62;;;;;;;5.31;85.62;99169.66;1726775;81;21070;-74
2021/11/28 10:08:57;;;;;;;118.50;41.15;;;;;;;5.38;85.69;99167.38;1735884;81;21038;-74
2021/11/28 10:11:38;;;;;;;123.38;51.08;;;;;;;5.47;85.75;99164.05;1739473;82;21500;-73
2021/11/28 10:14:12;;;;;;;54.23;24.60;;;;;;;5.54;85.76;99162.63;1737970;81;21083;-73
2021/11/28 10:16:39;;;;;;;108.72;43.58;;;;;;;5.63;85.87;99157.98;1735298;82;21057;-74
2021/11/28 10:19:07;;;;;;;93.37;34.38;;;;;;;5.70;85.88;99153.94;1749590;82;21033;-76
2021/11/28 10:21:35;;;;;;;85.42;37.73;;;;;;;5.78;85.94;99161.64;1749254;81;21057;-72
2021/11/28 10:24:16;;;;;;;93.78;33.40;;;;;;;5.85;85.94;99161.52;1742293;81;21357;-74
2021/11/28 10:27:05;;;;;;;78.37;31.45;;;;;;;5.91;85.92;99154.53;1688779;82;21826;-74
2021/11/28 10:29:40;;;;;;;74.67;34.78;;;;;;;5.94;85.87;99156.42;1720382;81;21086;-73
2021/11/28 10:32:09;;;;;;;114.70;37.30;;;;;;;5.95;85.78;99153.31;1739151;82;21004;-72
2021/11/28 10:34:40;;;;;;;85.32;38.10;;;;;;;5.96;85.74;99144.02;1732081;82;21598;-72
2021/11/28 10:37:19;;;;;;;155.40;45.88;;;;;;;5.98;85.73;99139.95;1725081;82;21035;-73
2021/11/28 10:39:52;;;;;;;126.18;50.35;;;;;;;5.99;85.72;99142.48;1732372;81;21617;-73
2021/11/28 10:42:32;;;;;;;133.52;58.02;;;;;;;6.00;85.67;99152.48;1715811;82;21069;-72
2021/11/28 10:45:16;;;;;;;123.70;45.98;;;;;;;6.00;85.64;99161.18;1717514;82;21030;-74
2021/11/28 10:47:51;;;;;;;115.75;46.05;;;;;;;5.98;85.62;99159.61;1726338;82;21659;-72
2021/11/28 10:50:28;;;;;;;76.45;34.73;;;;;;;5.99;85.63;99158.20;1717084;82;21524;-74
2021/11/28 10:53:15;;;;;;;75.87;30.62;;;;;;;6.02;85.66;99149.26;1724783;82;22691;-73
2021/11/28 10:55:46;;;;;;;72.15;27.58;;;;;;;6.06;85.71;99138.87;1727480;82;21079;-72
2021/11/28 10:58:21;;;;;;;57.33;26.68;;;;;;;6.10;85.72;99137.69;1721106;82;21581;-74
2021/11/28 11:00:50;;;;;;;55.92;25.77;;;;;;;6.13;85.74;99136.59;1726039;82;20958;-72
2021/11/28 11:03:34;;;;;;;65.30;24.45;;;;;;;6.14;85.73;99143.02;1727787;82;21058;-73
2021/11/28 11:06:27;;;;;;;46.08;24.02;;;;;;;6.17;85.76;99141.94;1728725;82;22249;-73
2021/11/28 11:08:55;;;;;;;53.87;23.73;;;;;;;6.18;85.73;99135.77;1718106;82;21011;-71
2021/11/28 11:11:24;;;;;;;45.00;26.57;;;;;;;6.20;85.78;99130.74;1735800;82;21008;-73
2021/11/28 11:14:00;;;;;;;44.35;27.48;;;;;;;6.25;85.84;99133.80;1724618;82;20949;-72
2021/11/28 11:16:42;;;;;;;59.60;33.67;;;;;;;6.30;85.90;99134.28;1739111;82;21454;-72
2021/11/28 11:19:36;;;;;;;53.70;30.65;;;;;;;6.38;85.95;99145.94;1712070;82;21798;-74
2021/11/28 11:22:23;;;;;;;66.77;46.37;;;;;;;6.43;85.98;99159.49;1709810;84;21010;-73
2021/11/28 11:24:58;;;;;;;53.58;37.13;;;;;;;6.48;86.03;99162.59;1688856;83;21012;-73
2021/11/28 11:27:34;;;;;;;48.42;34.78;;;;;;;6.53;86.09;99161.23;1679998;84;21010;-73
2021/11/28 11:30:08;;;;;;;49.40;33.83;;;;;;;6.58;86.10;99158.25;1708753;82;20979;-73
2021/11/28 11:33:01;;;;;;;51.45;38.48;;;;;;;6.63;86.13;99153.92;1716325;82;21850;-72
2021/11/28 11:35:30;;;;;;;42.30;30.97;;;;;;;6.67;86.12;99145.69;1718667;82;20944;-71
2021/11/28 11:38:06;;;;;;;44.13;30.55;;;;;;;6.73;86.13;99142.54;1723567;81;21002;-73
2021/11/28 11:40:33;;;;;;;44.48;31.25;;;;;;;6.78;86.16;99134.30;1723794;81;20994;-74
2021/11/28 11:43:00;;;;;;;44.05;31.12;;;;;;;6.83;86.13;99135.56;1740101;81;21012;-73
2021/11/28 11:45:29;;;;;;;45.10;31.23;;;;;;;6.86;86.15;99144.51;1732762;81;21721;-72
2021/11/28 11:47:56;;;;;;;42.45;30.50;;;;;;;6.92;86.13;99135.27;1743599;81;20956;-71
2021/11/28 11:50:25;;;;;;;40.52;29.80;;;;;;;6.98;86.15;99127.38;1736177;81;21094;-72